Aviation Digital Data Service (ADDS)

Output produced by METARs form (0137 UTC 23 November 2017)
found at http://www.aviationweather.gov/adds/metars/
 
TAF FQBR 222200Z 2300/2406 36010KT 9999 FEW020 
     BECMG 2306/2308 10010KT BKN020 
     PROB30 
     TEMPO 2306/2312 5000 -RADZ SCT015 
     BECMG 2312/2314 16014KT SCT025 
     BECMG 2400/2402 09010KT TX30/2313Z TN20/2303Z
       
FQCH 230100Z 15006KT 9999 SCT015 20/20 Q1017
TAF FQCH 222200Z 2300/2324 08008KT 9999 SCT020 
     PROB30 
     TEMPO 2306/2312 5000 -RADZ SCT015 
     BECMG 2312/2314 15012KT SCT025 
     BECMG 2318/2320 VRB03KT TX27/2313Z TN17/2303Z
       
TAF FQIN 222200Z 2300/2324 14010KT 9999 FEW025 
     BECMG 2306/2308 20010KT 
     BECMG 2312/2314 11012KT 
     BECMG 2318/2320 17010KT TX30/2313Z TN21/2303Z
       
TAF FQLC 222200Z 2300/2324 10008KT 9999 BKN020 FEW025CB 
     BECMG 2306/2308 04010KT SCT020 
     BECMG 2312/2314 34012KT 
     BECMG 2318/2320 04010KT TX30/2313Z TN17/2303Z
       
FQMA 230100Z 23013KT 9999 BKN020 21/19 Q1017 NOSIG
TAF FQMA 222200Z 2300/2406 16012KT 9999 BKN020 FEW025CB 
     PROB30 
     TEMPO 2224/2306 5000 -TSRA SCT015 FEW020CB 
     BECMG 2306/2308 22010G20KT BKN020 
     BECMG 2312/2314 15014KT 
     BECMG 2318/2320 21010KT 
     BECMG 2400/2402 05010KT TX25/2313Z TN19/2303Z 
       
TAF FQNC 222200Z 2300/2324 07008KT 9999 SCT020 
     BECMG 2306/2308 05010KT 
     BECMG 2312/2314 11012KT 
     BECMG 2318/2320 17010KT TX33/2313Z TN20/2303Z
       
FQNP 230100Z 06007KT CAVOK 24/21 Q1012
TAF FQNP 222200Z 2300/2406 10008KT 9999 SCT020 
     BECMG 2306/2308 04010KT 
     BECMG 2312/2314 13012KT 
     BECMG 2318/2320 VRB03KT 
     BECMG 2400/2402 15010KT TX35/2313Z TN22/2303Z
       
FQPB 230100Z 02005KT 9999 FEW020 26/24 Q1010
TAF FQPB 222200Z 2300/2324 05008KT 9999 SCT020 
     BECMG 2306/2308 02010KT 
     BECMG 2312/2314 09012KT TX31/2313Z TN24/2303Z
       
FQQL 230000Z 08006KT 9999 FEW020 26/24 Q1010
TAF FQQL 222200Z 2300/2324 03010KT 9999 SCT020 
     BECMG 2312/2314 12012KT 
     BECMG 2318/2320 17010KT TX35/2313Z TN21/2303Z
       
TAF FQTT 222200Z 2300/2324 15008KT 9999 SCT020 FEW025CB 
     BECMG 2306/2308 08010KT BKN020 
     BECMG 2318/2320 14010KT TX39/2313Z TN25/2303Z
       
TAF FQVL 222200Z 2300/2324 14008KT 9999 FEW025 
     BECMG 2306/2308 21010KT 
     BECMG 2312/2314 12012KT 
     BECMG 2318/2320 18010KT TX29/2313Z TN20/2303Z